Time;durP1;ratioP1;P1;durP2;ratioP2;P2;SDS_P1;SDS_P2;PMS_P1;PMS_P2;Temp;Humidity;BMP_temperature;BMP_pressure;BME280_temperature;BME280_humidity;BME280_pressure;Samples;Min_cycle;Max_cycle;Signal;HPM_P1;HPM_P2
2021/03/05 00:01:31;;;;;;;29.45;17.10;;;;;;;6.66;74.86;101843.50;5092421;28;20064;-69
2021/03/05 00:03:58;;;;;;;27.33;17.25;;;;;;;6.57;75.29;101839.63;5041356;28;20483;-70
2021/03/05 00:06:25;;;;;;;27.63;16.85;;;;;;;6.63;74.06;101839.41;5090956;28;20040;-67
2021/03/05 00:08:53;;;;;;;26.63;16.92;;;;;;;6.73;73.99;101841.38;5086148;28;20371;-64
2021/03/05 00:11:22;;;;;;;26.15;17.30;;;;;;;7.06;73.20;101834.81;5075825;28;20059;-71
2021/03/05 00:13:50;;;;;;;25.38;16.73;;;;;;;7.01;71.91;101834.78;5094406;28;20410;-65
2021/03/05 00:16:17;;;;;;;37.53;18.25;;;;;;;6.81;72.23;101840.94;5095967;28;20044;-69
2021/03/05 00:18:52;;;;;;;26.90;17.20;;;;;;;6.83;72.19;101836.03;5075761;28;20051;-69
2021/03/05 00:21:19;;;;;;;24.95;16.33;;;;;;;6.87;71.91;101836.31;5092268;28;20055;-70
2021/03/05 00:23:47;;;;;;;22.10;15.40;;;;;;;6.72;72.18;101826.91;5092680;28;20044;-68
2021/03/05 00:26:17;;;;;;;25.33;16.20;;;;;;;6.67;72.68;101834.22;5089746;28;20059;-70
2021/03/05 00:28:44;;;;;;;23.88;16.70;;;;;;;6.87;72.29;101839.06;5058257;28;20047;-67
2021/03/05 00:31:11;;;;;;;23.65;15.52;;;;;;;6.84;71.67;101843.13;5092357;28;20518;-68
2021/03/05 00:33:38;;;;;;;25.60;15.63;;;;;;;6.72;71.73;101839.75;5090794;28;20395;-66
2021/03/05 00:36:11;;;;;;;19.58;13.98;;;;;;;6.90;70.45;101847.59;5092139;28;20513;-67
2021/03/05 00:38:38;;;;;;;23.02;14.38;;;;;;;6.84;69.96;101846.72;5092567;28;20055;-67
2021/03/05 00:41:05;;;;;;;21.42;14.45;;;;;;;6.71;69.92;101860.00;5093071;28;20533;-67
2021/03/05 00:43:32;;;;;;;21.67;15.20;;;;;;;6.55;70.52;101852.75;5073781;28;20043;-66
2021/03/05 00:46:00;;;;;;;19.30;13.63;;;;;;;6.49;69.77;101872.91;5091633;28;20420;-68
2021/03/05 00:48:30;;;;;;;20.80;13.48;;;;;;;6.55;69.87;101855.47;5073219;28;20051;-64
2021/03/05 00:51:00;;;;;;;19.58;13.93;;;;;;;6.59;69.09;101862.91;5057530;28;20070;-64
2021/03/05 00:53:27;;;;;;;18.63;12.98;;;;;;;6.70;68.67;101867.41;5092337;28;20044;-65
2021/03/05 00:55:55;;;;;;;21.05;14.00;;;;;;;6.71;68.81;101862.75;5068683;28;20048;-64
2021/03/05 00:58:24;;;;;;;18.52;13.57;;;;;;;6.59;68.20;101865.63;5073744;28;20478;-63
2021/03/05 01:00:57;;;;;;;20.92;14.10;;;;;;;6.48;68.95;101868.53;5075324;28;20051;-65
2021/03/05 01:03:27;;;;;;;;;;;;;;;6.54;69.01;101868.31;5074120;28;20055;-67
2021/03/05 01:06:15;;;;;;;20.95;14.45;;;;;;;6.94;67.92;101865.13;5072566;28;19920;-68
2021/03/05 01:08:52;;;;;;;21.27;14.35;;;;;;;6.82;67.60;101870.78;5073840;28;20047;-63
2021/03/05 01:11:38;;;;;;;23.33;15.30;;;;;;;6.96;68.16;101875.84;5094607;28;20058;-70
2021/03/05 01:14:08;;;;;;;22.50;14.95;;;;;;;6.90;68.34;101882.34;5091082;28;20048;-71
2021/03/05 01:16:37;;;;;;;22.58;14.93;;;;;;;6.90;68.56;101882.34;5091405;28;20048;-69
2021/03/05 01:19:08;;;;;;;21.83;16.30;;;;;;;6.89;68.73;101878.78;5073278;28;20521;-75
2021/03/05 01:21:39;;;;;;;21.33;15.30;;;;;;;6.51;69.39;101885.28;5055860;28;20051;-71
2021/03/05 01:24:09;;;;;;;23.98;15.93;;;;;;;6.40;70.86;101885.41;5074221;28;20048;-70
2021/03/05 01:26:50;;;;;;;20.05;13.77;;;;;;;6.35;70.56;101886.19;5091064;28;20036;-68
2021/03/05 01:29:19;;;;;;;18.65;13.57;;;;;;;6.25;70.62;101890.72;5056729;28;20044;-71
2021/03/05 01:31:49;;;;;;;18.58;13.13;;;;;;;6.16;71.05;101889.50;5072943;28;20048;-69
2021/03/05 01:34:18;;;;;;;17.95;12.63;;;;;;;6.35;70.50;101880.72;5090164;28;20048;-70
2021/03/05 01:36:49;;;;;;;20.35;12.93;;;;;;;6.35;70.52;101896.28;5089939;28;20400;-73
2021/03/05 01:39:21;;;;;;;16.48;11.70;;;;;;;6.07;70.17;101899.25;5106922;28;20048;-71
2021/03/05 01:41:48;;;;;;;20.70;13.93;;;;;;;5.95;70.39;101895.81;5073218;28;20052;-68
2021/03/05 01:44:15;;;;;;;18.27;12.70;;;;;;;6.08;69.51;101900.91;5056194;28;20504;-71
2021/03/05 01:46:42;;;;;;;18.38;11.52;;;;;;;6.01;69.70;101890.19;5090989;28;20055;-71
2021/03/05 01:49:10;;;;;;;16.65;10.85;;;;;;;5.70;70.26;101896.28;5071666;28;20040;-73
2021/03/05 01:51:37;;;;;;;19.88;11.48;;;;;;;6.08;69.71;101898.19;5091390;28;20048;-72
2021/03/05 01:54:07;;;;;;;15.82;10.65;;;;;;;6.29;68.36;101879.03;5091771;28;20048;-71
2021/03/05 01:56:44;;;;;;;17.00;10.18;;;;;;;6.33;68.45;101882.88;5091209;28;20048;-67
2021/03/05 01:59:32;;;;;;;15.63;10.68;;;;;;;6.22;68.33;101889.34;5038762;28;20053;-68
2021/03/05 02:02:07;;;;;;;14.60;9.90;;;;;;;6.12;68.76;101888.41;5085505;28;20514;-68
2021/03/05 02:04:35;;;;;;;17.23;11.02;;;;;;;5.97;68.93;101889.03;5091461;28;20040;-69
2021/03/05 02:07:06;;;;;;;16.08;10.38;;;;;;;5.92;69.17;101888.97;5074059;28;20048;-70
2021/03/05 02:09:34;;;;;;;16.10;10.50;;;;;;;5.93;70.39;101887.06;5090456;28;20495;-70
2021/03/05 02:12:03;;;;;;;15.48;10.20;;;;;;;5.93;69.91;101889.78;5091060;28;20056;-68
2021/03/05 02:14:31;;;;;;;18.07;10.73;;;;;;;5.82;70.58;101896.16;5056244;28;20506;-62
2021/03/05 02:17:09;;;;;;;15.63;10.50;;;;;;;5.79;70.09;101894.75;5072597;28;20645;-64
2021/03/05 02:19:36;;;;;;;15.30;10.25;;;;;;;5.63;70.62;101899.19;5072172;28;20050;-69
2021/03/05 02:22:16;;;;;;;14.38;9.48;;;;;;;5.55;70.57;101907.00;5089373;28;20066;-65
2021/03/05 02:25:04;;;;;;;12.27;8.75;;;;;;;5.67;70.61;101892.16;5072118;28;20048;-67
2021/03/05 02:27:56;;;;;;;14.00;8.65;;;;;;;5.72;69.33;101891.38;5070598;28;20403;-67
2021/03/05 02:30:59;;;;;;;14.73;8.40;;;;;;;5.92;69.27;101890.84;5089635;28;20052;-71
2021/03/05 02:33:53;;;;;;;12.73;8.20;;;;;;;5.64;69.25;101884.47;5090530;28;20056;-67
2021/03/05 02:36:23;;;;;;;13.65;8.23;;;;;;;5.64;69.34;101887.19;5072443;28;20048;-70
2021/03/05 02:39:17;;;;;;;12.55;8.20;;;;;;;5.84;69.13;101888.56;5052374;28;20387;-68
2021/03/05 02:41:53;;;;;;;11.95;7.40;;;;;;;5.61;69.84;101890.41;4989344;28;20055;-70
2021/03/05 02:44:28;;;;;;;15.38;8.15;;;;;;;5.61;69.39;101890.41;4977956;28;20057;-68
2021/03/05 02:47:01;;;;;;;13.73;8.13;;;;;;;5.62;69.60;101893.97;4988645;28;20434;-70
2021/03/05 02:49:35;;;;;;;13.15;6.78;;;;;;;5.58;69.77;101890.91;4977600;28;20043;-66
2021/03/05 02:52:05;;;;;;;17.75;7.75;;;;;;;5.77;69.26;101891.44;4990214;28;20058;-68
2021/03/05 02:54:37;;;;;;;12.38;7.72;;;;;;;5.67;69.02;101885.84;4992689;28;20069;-70
2021/03/05 02:57:26;;;;;;;11.65;7.63;;;;;;;5.75;68.80;101894.44;4993019;28;20069;-69
2021/03/05 02:59:56;;;;;;;12.57;7.63;;;;;;;5.99;68.54;101891.50;4941727;28;20527;-64
2021/03/05 03:02:25;;;;;;;10.45;6.60;;;;;;;6.26;67.90;101879.50;4957499;28;20063;-70
2021/03/05 03:04:56;;;;;;;11.85;7.25;;;;;;;6.06;67.74;101898.44;4972160;28;20070;-69
2021/03/05 03:07:38;;;;;;;12.30;8.15;;;;;;;5.97;67.85;101894.50;4973613;28;20054;-70
2021/03/05 03:10:08;;;;;;;13.55;8.00;;;;;;;5.72;68.34;101894.94;4937599;29;20062;-70
2021/03/05 03:12:35;;;;;;;12.63;7.78;;;;;;;5.86;68.36;101898.16;4947702;28;20085;-64
2021/03/05 03:15:10;;;;;;;11.15;7.63;;;;;;;5.82;68.15;101899.75;4972812;28;20503;-68
2021/03/05 03:17:45;;;;;;;14.95;8.18;;;;;;;5.66;68.28;101906.91;4960996;28;20056;-68
2021/03/05 03:20:27;;;;;;;14.63;8.02;;;;;;;5.51;69.30;101906.66;5037261;28;20060;-67
2021/03/05 03:22:55;;;;;;;14.38;7.97;;;;;;;5.67;69.10;101900.34;5038912;28;20052;-69
2021/03/05 03:25:23;;;;;;;13.05;7.78;;;;;;;5.81;68.92;101917.22;5071043;28;20522;-69
2021/03/05 03:27:50;;;;;;;13.48;8.00;;;;;;;5.99;68.74;101913.38;5056831;28;20048;-67
2021/03/05 03:30:19;;;;;;;14.38;8.93;;;;;;;5.79;68.79;101915.81;5072938;28;20052;-69
2021/03/05 03:32:46;;;;;;;13.40;8.27;;;;;;;5.75;69.35;101919.03;5072697;28;20063;-68
2021/03/05 03:35:16;;;;;;;14.05;9.10;;;;;;;5.69;70.22;101911.03;5054246;28;20059;-70
2021/03/05 03:37:44;;;;;;;14.55;9.20;;;;;;;6.14;68.86;101921.75;5056178;28;20052;-70
2021/03/05 03:40:18;;;;;;;18.25;9.55;;;;;;;5.74;69.92;101911.09;5072784;28;20045;-70
2021/03/05 03:42:46;;;;;;;16.58;9.07;;;;;;;5.95;69.84;101912.22;5072190;28;20052;-70
2021/03/05 03:45:14;;;;;;;13.60;8.60;;;;;;;6.15;69.18;101909.75;5073372;28;20045;-67
2021/03/05 03:47:42;;;;;;;14.68;9.05;;;;;;;5.75;70.30;101908.09;5056556;28;20484;-65
2021/03/05 03:50:21;;;;;;;14.45;9.93;;;;;;;5.74;70.35;101914.66;5073255;28;20044;-70
2021/03/05 03:52:50;;;;;;;;;;;;;;;5.58;70.53;101918.25;5053638;28;20044;-68
2021/03/05 03:55:17;;;;;;;15.27;9.27;;;;;;;5.68;70.27;101912.91;5055147;28;19927;-70
2021/03/05 03:57:49;;;;;;;16.02;9.93;;;;;;;5.37;71.25;101926.41;5055246;28;20044;-70
2021/03/05 04:00:17;;;;;;;14.88;9.13;;;;;;;5.41;71.77;101922.09;5041536;28;20044;-68
2021/03/05 04:02:47;;;;;;;15.65;9.57;;;;;;;5.63;70.92;101925.72;5044628;28;20396;-70
2021/03/05 04:05:25;;;;;;;18.67;11.20;;;;;;;5.31;71.80;101930.97;5056660;28;20044;-69
2021/03/05 04:07:54;;;;;;;15.48;9.68;;;;;;;5.48;71.66;101931.78;5056188;28;20052;-70
2021/03/05 04:10:28;;;;;;;17.08;10.57;;;;;;;5.49;71.81;101932.59;5072915;28;20051;-70
2021/03/05 04:12:57;;;;;;;18.05;9.25;;;;;;;5.57;71.54;101932.16;5074989;28;20513;-69
2021/03/05 04:15:24;;;;;;;15.75;9.88;;;;;;;5.38;71.94;101938.97;5091905;28;20075;-71
2021/03/05 04:17:51;;;;;;;19.13;9.52;;;;;;;5.38;71.56;101939.81;5093867;28;20126;-69
2021/03/05 04:20:23;;;;;;;15.95;9.40;;;;;;;5.53;71.10;101947.41;5075818;28;20395;-69
2021/03/05 04:22:52;;;;;;;14.20;8.70;;;;;;;5.63;70.57;101939.38;5074643;28;20056;-68
2021/03/05 04:25:20;;;;;;;15.35;9.55;;;;;;;5.78;70.04;101946.94;5092908;28;20043;-70
2021/03/05 04:27:46;;;;;;;17.52;9.45;;;;;;;5.61;69.74;101944.25;5092109;28;20399;-68
2021/03/05 04:30:23;;;;;;;12.90;8.32;;;;;;;5.72;69.04;101938.69;5089968;28;20044;-71
2021/03/05 04:32:51;;;;;;;11.35;7.13;;;;;;;5.82;68.13;101943.47;5092296;28;20169;-70
2021/03/05 04:35:18;;;;;;;13.50;6.93;;;;;;;5.58;68.38;101952.94;5092524;28;20067;-71
2021/03/05 04:37:45;;;;;;;13.40;6.63;;;;;;;5.60;68.96;101962.56;5091303;28;20048;-68
2021/03/05 04:40:13;;;;;;;14.48;6.88;;;;;;;5.56;69.06;101964.13;5072086;28;20496;-69
2021/03/05 04:42:43;;;;;;;13.13;5.82;;;;;;;5.39;68.61;101970.69;5071523;28;20060;-70
2021/03/05 04:45:16;;;;;;;10.98;5.82;;;;;;;5.30;68.52;101966.72;5072201;28;20051;-69
2021/03/05 04:47:43;;;;;;;9.38;5.57;;;;;;;5.50;68.42;101964.31;5074410;28;20074;-68
2021/03/05 04:50:10;;;;;;;12.52;5.65;;;;;;;5.66;67.85;101968.94;5075547;28;20036;-69
2021/03/05 04:52:40;;;;;;;12.48;5.20;;;;;;;5.07;68.04;101973.16;5091428;28;20051;-64
2021/03/05 04:55:10;;;;;;;14.00;4.80;;;;;;;5.00;68.67;101964.31;5092240;28;20052;-67
2021/03/05 04:57:38;;;;;;;11.45;4.30;;;;;;;5.05;67.38;101975.31;5091787;28;20052;-67
2021/03/05 05:00:06;;;;;;;12.27;4.60;;;;;;;5.12;67.11;101973.25;5073673;28;20035;-64
2021/03/05 05:02:33;;;;;;;12.95;4.30;;;;;;;5.33;66.47;101979.88;5073713;28;20162;-66
2021/03/05 05:05:00;;;;;;;13.85;4.20;;;;;;;5.26;66.88;101971.84;5081942;28;20499;-64
2021/03/05 05:07:29;;;;;;;10.93;4.27;;;;;;;5.20;66.21;101974.72;5090502;28;20558;-66
2021/03/05 05:09:56;;;;;;;14.23;4.50;;;;;;;5.17;65.97;101970.59;5088254;28;20052;-68
2021/03/05 05:12:26;;;;;;;11.77;4.25;;;;;;;5.48;66.16;101963.72;5075271;28;20044;-66
2021/03/05 05:14:52;;;;;;;10.57;4.13;;;;;;;5.29;64.31;101975.97;5073825;28;20404;-69
2021/03/05 05:17:20;;;;;;;9.77;3.60;;;;;;;5.12;63.96;101973.25;5073588;28;20056;-67
2021/03/05 05:19:47;;;;;;;5.53;2.30;;;;;;;5.02;62.51;101980.44;5091924;28;20043;-71
2021/03/05 05:22:14;;;;;;;6.20;2.08;;;;;;;5.04;61.99;101978.28;5090944;28;20379;-68
2021/03/05 05:24:41;;;;;;;10.95;2.38;;;;;;;5.27;61.57;101970.78;5074486;28;20048;-71
2021/03/05 05:27:08;;;;;;;7.18;2.38;;;;;;;5.07;61.39;101980.53;5074061;28;20044;-67
2021/03/05 05:29:37;;;;;;;8.18;2.80;;;;;;;5.00;61.92;101997.06;5074309;28;20051;-70
2021/03/05 05:32:05;;;;;;;11.57;3.30;;;;;;;5.00;61.91;101986.16;5074123;28;20044;-71
2021/03/05 05:34:32;;;;;;;9.98;2.85;;;;;;;5.03;62.29;101980.19;5091401;28;20074;-70
2021/03/05 05:36:59;;;;;;;7.10;2.90;;;;;;;4.99;62.53;101979.00;5091958;28;20051;-70
2021/03/05 05:39:42;;;;;;;9.00;3.17;;;;;;;4.96;60.92;101978.69;5075819;28;21839;-72
2021/03/05 05:42:09;;;;;;;10.18;2.78;;;;;;;4.99;60.71;101978.19;5092337;28;20502;-72
2021/03/05 05:44:36;;;;;;;8.15;2.65;;;;;;;5.07;61.02;101972.34;5091626;28;20048;-70
2021/03/05 05:47:03;;;;;;;9.20;2.80;;;;;;;5.13;61.04;101971.31;5091213;28;20522;-69
2021/03/05 05:49:32;;;;;;;10.90;2.80;;;;;;;5.01;61.19;101971.41;5073729;28;20048;-69
2021/03/05 05:52:00;;;;;;;9.07;2.90;;;;;;;4.83;61.55;101984.47;5089707;28;20048;-71
2021/03/05 05:54:28;;;;;;;12.73;2.83;;;;;;;5.00;59.99;101982.59;5073895;28;20048;-72
2021/03/05 05:56:55;;;;;;;9.90;2.35;;;;;;;4.80;60.09;101990.38;5091164;28;20052;-71
2021/03/05 05:59:25;;;;;;;8.57;2.03;;;;;;;4.98;60.02;101982.84;5081039;28;20048;-71
2021/03/05 06:01:55;;;;;;;14.57;2.42;;;;;;;5.03;59.44;101991.09;5056221;28;20040;-69
2021/03/05 06:04:23;;;;;;;;;;;;;;;5.10;59.07;101990.94;5079435;28;20364;-70
2021/03/05 06:06:52;;;;;;;10.10;3.22;;;;;;;5.09;58.67;101997.50;5055731;28;19920;-69
2021/03/05 06:09:18;;;;;;;9.85;2.58;;;;;;;5.09;58.89;101998.31;5080204;28;20052;-69
2021/03/05 06:11:48;;;;;;;9.93;2.70;;;;;;;5.18;58.46;101996.00;5082317;28;20052;-68
2021/03/05 06:14:17;;;;;;;11.85;2.88;;;;;;;5.12;57.85;102000.56;5057883;28;20047;-69
2021/03/05 06:16:58;;;;;;;14.30;2.88;;;;;;;4.92;57.79;101988.41;5086719;28;20056;-73
2021/03/05 06:19:41;;;;;;;8.73;2.60;;;;;;;5.00;57.87;101991.59;5083868;28;20053;-72
2021/03/05 06:22:23;;;;;;;11.85;2.80;;;;;;;5.05;56.28;102001.78;5064410;28;20048;-70
2021/03/05 06:24:51;;;;;;;10.10;2.50;;;;;;;4.76;56.95;102011.06;5067420;28;20051;-70
2021/03/05 06:27:18;;;;;;;8.98;2.42;;;;;;;4.89;56.84;102000.69;5074682;28;20052;-69
2021/03/05 06:29:47;;;;;;;8.35;2.50;;;;;;;5.08;56.42;102010.31;5075848;28;21189;-71
2021/03/05 06:32:15;;;;;;;12.85;2.80;;;;;;;5.02;56.51;102005.00;5075368;28;20059;-63
2021/03/05 06:34:47;;;;;;;12.63;3.00;;;;;;;5.13;56.50;102004.09;5064286;28;20052;-73
2021/03/05 06:37:15;;;;;;;9.75;3.35;;;;;;;5.02;56.74;102013.19;5064829;28;20044;-69
2021/03/05 06:39:43;;;;;;;10.93;3.38;;;;;;;5.19;56.67;102008.59;5057520;28;20519;-72
2021/03/05 06:42:12;;;;;;;14.05;3.88;;;;;;;5.25;56.46;102019.34;5056657;28;20052;-68
2021/03/05 06:44:45;;;;;;;15.65;4.07;;;;;;;5.14;56.78;102020.25;5077386;28;20055;-68
2021/03/05 06:47:17;;;;;;;11.82;3.75;;;;;;;5.19;57.25;102020.34;5055901;28;20049;-68
2021/03/05 06:49:46;;;;;;;13.85;3.65;;;;;;;5.22;56.60;102019.00;5055324;28;20506;-69
2021/03/05 06:52:18;;;;;;;12.80;3.78;;;;;;;5.17;56.59;102016.19;5055720;28;20061;-69
2021/03/05 06:54:46;;;;;;;10.07;4.13;;;;;;;5.16;55.80;102036.41;5067860;28;20040;-72
2021/03/05 06:57:26;;;;;;;13.32;3.72;;;;;;;5.04;55.98;102024.72;5062013;28;20059;-70
2021/03/05 06:59:53;;;;;;;12.05;3.60;;;;;;;5.17;55.13;102038.03;5076053;28;20048;-69
2021/03/05 07:02:30;;;;;;;13.40;3.78;;;;;;;5.05;55.39;102035.38;5085687;28;20053;-67
2021/03/05 07:04:57;;;;;;;14.35;3.92;;;;;;;5.10;54.74;102040.94;5084095;28;20056;-69
2021/03/05 07:07:24;;;;;;;13.35;4.43;;;;;;;4.99;55.52;102039.06;5066461;28;20056;-67
2021/03/05 07:09:54;;;;;;;16.42;4.35;;;;;;;4.94;55.07;102043.59;5081953;28;20139;-67
2021/03/05 07:12:26;;;;;;;13.65;4.07;;;;;;;5.02;55.21;102046.78;5064633;28;20048;-71
2021/03/05 07:15:11;;;;;;;9.48;4.10;;;;;;;4.89;54.99;102054.44;5073338;28;20064;-66
2021/03/05 07:17:39;;;;;;;17.85;4.65;;;;;;;4.84;55.54;102055.19;5055453;28;20055;-67
2021/03/05 07:20:14;;;;;;;19.30;3.78;;;;;;;4.79;55.97;102056.97;5068725;28;20053;-68
2021/03/05 07:22:42;;;;;;;15.55;4.68;;;;;;;4.94;55.77;102054.53;5059755;28;20057;-71
2021/03/05 07:25:13;;;;;;;13.60;4.28;;;;;;;5.03;55.86;102053.06;5057404;28;20059;-71
2021/03/05 07:27:46;;;;;;;15.15;4.43;;;;;;;4.98;56.38;102062.00;5070378;28;20052;-65
2021/03/05 07:30:25;;;;;;;13.73;4.20;;;;;;;4.81;57.05;102068.47;5056161;28;20369;-69
2021/03/05 07:32:56;;;;;;;12.63;4.50;;;;;;;5.06;56.29;102060.75;5056961;28;20048;-73
2021/03/05 07:35:30;;;;;;;14.27;4.00;;;;;;;5.03;56.38;102072.19;5056617;28;20045;-72
2021/03/05 07:38:01;;;;;;;12.60;3.97;;;;;;;4.91;56.68;102074.13;5038111;28;20051;-66
2021/03/05 07:40:34;;;;;;;12.43;4.95;;;;;;;4.97;56.95;102078.63;5075103;28;20043;-66
2021/03/05 07:43:05;;;;;;;13.95;4.20;;;;;;;4.82;57.29;102078.31;5072158;28;20052;-66
2021/03/05 07:45:45;;;;;;;21.52;4.45;;;;;;;4.78;57.55;102079.91;5074553;28;20047;-63
2021/03/05 07:48:26;;;;;;;15.45;4.25;;;;;;;4.68;57.78;102068.75;5073242;28;20389;-68
2021/03/05 07:50:58;;;;;;;14.40;4.75;;;;;;;5.05;57.09;102078.25;5068112;28;20511;-70
2021/03/05 07:53:25;;;;;;;14.80;4.40;;;;;;;5.03;56.89;102077.66;5061667;28;20049;-70
2021/03/05 07:55:52;;;;;;;16.58;4.43;;;;;;;4.97;57.78;102095.81;5080113;28;20529;-72
2021/03/05 07:58:59;;;;;;;13.88;4.35;;;;;;;4.86;57.13;102093.16;5089106;28;20056;-72
2021/03/05 08:01:50;;;;;;;12.63;4.15;;;;;;;4.81;57.65;102085.69;5010227;28;20062;-70
2021/03/05 08:04:20;;;;;;;15.90;3.90;;;;;;;5.29;58.49;102094.28;5008990;28;20180;-73
2021/03/05 08:07:10;;;;;;;15.48;4.63;;;;;;;5.71;58.17;102098.31;4992213;28;20061;-74
2021/03/05 08:09:43;;;;;;;13.48;3.67;;;;;;;5.98;55.18;102111.38;5007182;28;20069;-79
2021/03/05 08:12:33;;;;;;;16.77;3.70;;;;;;;6.04;54.02;102113.91;5010564;28;20074;-75
2021/03/05 08:15:08;;;;;;;12.90;4.00;;;;;;;6.05;53.55;102106.56;5013143;28;20050;-71
2021/03/05 08:17:38;;;;;;;17.27;4.65;;;;;;;6.17;52.81;102119.03;5014569;28;20058;-61
2021/03/05 08:20:06;;;;;;;;;;;;;;;6.27;52.84;102112.91;5019281;28;20497;-63
2021/03/05 08:22:33;;;;;;;16.48;5.10;;;;;;;6.20;51.50;102115.81;5010799;28;19925;-75
2021/03/05 08:25:22;;;;;;;19.65;6.05;;;;;;;5.19;51.47;102123.31;4997945;28;20060;-70
2021/03/05 08:27:49;;;;;;;18.13;5.80;;;;;;;5.02;52.62;102117.78;5011021;28;20073;-73
2021/03/05 08:30:23;;;;;;;20.83;6.90;;;;;;;5.11;52.57;102113.59;5010910;28;20177;-73
2021/03/05 08:33:07;;;;;;;16.83;7.07;;;;;;;5.03;52.44;102111.25;5070538;28;20063;-71
2021/03/05 08:35:36;;;;;;;16.63;7.50;;;;;;;4.97;52.91;102120.41;5092558;28;20047;-70
2021/03/05 08:38:32;;;;;;;19.02;7.28;;;;;;;4.76;53.41;102122.97;5073808;28;20040;-70
2021/03/05 08:41:06;;;;;;;19.10;7.30;;;;;;;4.80;53.35;102124.13;5092167;28;20051;-68
2021/03/05 08:43:35;;;;;;;17.52;9.10;;;;;;;4.84;53.68;102128.03;5100413;28;20396;-69
2021/03/05 08:46:05;;;;;;;24.52;7.97;;;;;;;4.86;53.64;102134.94;5091313;28;20047;-64
2021/03/05 08:48:40;;;;;;;18.98;7.45;;;;;;;4.76;53.49;102137.41;5075148;28;20514;-71
2021/03/05 08:51:13;;;;;;;21.83;7.75;;;;;;;4.88;53.78;102140.94;5091968;28;20048;-67
2021/03/05 08:53:56;;;;;;;19.55;8.65;;;;;;;4.93;53.40;102148.44;5091889;28;20052;-70
2021/03/05 08:56:29;;;;;;;21.75;8.00;;;;;;;4.63;54.05;102142.31;5092038;28;20492;-70
2021/03/05 08:58:59;;;;;;;25.85;8.15;;;;;;;4.61;54.65;102142.56;5071164;28;20525;-65
2021/03/05 09:01:35;;;;;;;19.42;7.18;;;;;;;4.80;54.19;102143.22;5083174;28;20045;-71
2021/03/05 09:04:15;;;;;;;21.13;7.40;;;;;;;4.77;54.12;102143.72;5069353;28;20049;-67
2021/03/05 09:06:56;;;;;;;24.05;8.00;;;;;;;4.57;54.91;102161.31;5068411;28;20064;-70
2021/03/05 09:09:25;;;;;;;14.07;6.82;;;;;;;4.53;55.25;102160.13;5058341;28;20044;-68
2021/03/05 09:12:14;;;;;;;20.77;8.45;;;;;;;4.60;54.67;102155.38;5068545;28;20487;-70
2021/03/05 09:14:46;;;;;;;25.40;8.57;;;;;;;4.46;55.18;102159.41;5069316;28;20056;-71
2021/03/05 09:17:14;;;;;;;21.63;8.25;;;;;;;4.57;55.36;102165.94;5078080;28;20290;-71
2021/03/05 09:19:48;;;;;;;21.55;8.18;;;;;;;4.98;54.83;102154.84;5065322;28;20066;-71
2021/03/05 09:22:17;;;;;;;18.42;7.05;;;;;;;5.19;54.26;102153.34;5076170;28;20054;-72
2021/03/05 09:24:54;;;;;;;23.00;7.63;;;;;;;5.09;54.73;102164.06;5071809;28;20056;-68
2021/03/05 09:27:31;;;;;;;17.98;8.38;;;;;;;5.00;54.51;102158.16;5084616;28;20055;-67
2021/03/05 09:29:59;;;;;;;20.90;7.68;;;;;;;5.05;54.35;102169.19;5075541;28;20052;-66
2021/03/05 09:32:30;;;;;;;20.02;7.65;;;;;;;4.82;54.22;102179.31;5077756;28;20040;-70
2021/03/05 09:35:00;;;;;;;19.73;8.10;;;;;;;4.83;54.14;102167.34;5042911;28;20058;-70
2021/03/05 09:37:29;;;;;;;17.45;7.32;;;;;;;4.83;54.56;102187.25;5036929;28;20049;-70
2021/03/05 09:39:58;;;;;;;18.05;9.18;;;;;;;4.84;54.13;102169.00;5044447;28;20163;-67
2021/03/05 09:42:49;;;;;;;22.65;9.25;;;;;;;4.69;54.14;102179.59;5078186;28;20492;-65
2021/03/05 09:45:42;;;;;;;22.42;9.43;;;;;;;4.73;54.18;102189.75;5085907;28;20063;-66
2021/03/05 09:48:30;;;;;;;19.77;10.00;;;;;;;4.80;53.84;102187.75;5050844;28;20048;-70
2021/03/05 09:51:02;;;;;;;20.58;9.70;;;;;;;5.11;53.07;102175.59;5101474;28;20048;-69
2021/03/05 09:53:38;;;;;;;24.58;10.38;;;;;;;4.66;53.48;102177.31;5062214;28;20450;-68
2021/03/05 09:56:08;;;;;;;20.75;9.52;;;;;;;4.77;53.15;102180.03;5067895;28;20063;-69
2021/03/05 09:58:36;;;;;;;23.52;9.50;;;;;;;4.79;53.63;102174.34;5051085;28;20057;-70
2021/03/05 10:01:04;;;;;;;23.40;10.75;;;;;;;4.68;53.31;102183.34;5069314;28;20041;-70
2021/03/05 10:03:31;;;;;;;21.50;11.98;;;;;;;4.60;53.29;102176.38;5087480;28;20494;-66
2021/03/05 10:05:59;;;;;;;22.00;11.82;;;;;;;4.80;52.78;102171.38;5036785;28;20055;-66
2021/03/05 10:08:29;;;;;;;27.33;11.80;;;;;;;4.84;53.07;102171.72;5051816;28;20060;-73
2021/03/05 10:11:09;;;;;;;22.58;11.38;;;;;;;4.98;52.15;102173.94;5086830;28;20060;-71
2021/03/05 10:13:45;;;;;;;26.20;12.00;;;;;;;5.03;51.76;102182.25;5047714;28;20750;-71
2021/03/05 10:16:25;;;;;;;25.58;12.50;;;;;;;5.02;52.22;102179.75;5037091;28;20059;-78
2021/03/05 10:19:00;;;;;;;21.45;10.80;;;;;;;5.23;52.18;102176.38;5044790;28;20074;-68
2021/03/05 10:21:27;;;;;;;24.17;11.75;;;;;;;5.17;52.12;102175.44;5057327;28;20499;-67
2021/03/05 10:23:55;;;;;;;25.40;12.23;;;;;;;5.23;53.01;102177.19;5077663;28;20040;-64
2021/03/05 10:26:25;;;;;;;29.40;12.35;;;;;;;5.11;52.63;102190.06;5085222;28;20052;-68
2021/03/05 10:28:55;;;;;;;20.50;11.57;;;;;;;5.08;52.94;102179.63;5076398;28;20504;-75
2021/03/05 10:31:38;;;;;;;;;;;;;;;5.05;51.38;102187.47;5077035;28;20056;-71
2021/03/05 10:34:17;;;;;;;26.25;10.52;;;;;;;4.84;51.73;102190.81;5034671;28;19932;-72
2021/03/05 10:36:44;;;;;;;21.80;10.13;;;;;;;4.87;51.71;102195.78;5065420;28;20488;-68
2021/03/05 10:39:11;;;;;;;21.17;10.30;;;;;;;4.85;51.19;102187.00;5075845;28;20048;-69
2021/03/05 10:41:39;;;;;;;20.02;10.05;;;;;;;4.83;51.80;102195.44;5040402;28;20048;-68
2021/03/05 10:44:06;;;;;;;26.55;10.27;;;;;;;4.79;51.50;102205.19;5067833;28;20059;-72
2021/03/05 10:46:34;;;;;;;24.88;9.73;;;;;;;4.91;50.83;102210.63;5071052;28;20048;-65
2021/03/05 10:49:01;;;;;;;22.88;11.05;;;;;;;4.99;51.24;102210.25;5053534;28;20072;-73
2021/03/05 10:51:28;;;;;;;23.48;9.57;;;;;;;4.93;49.92;102217.53;5061923;28;20043;-64
2021/03/05 10:53:56;;;;;;;20.58;8.80;;;;;;;4.98;49.26;102203.16;5061910;28;20502;-72
2021/03/05 10:56:23;;;;;;;19.63;9.40;;;;;;;5.16;49.21;102205.72;5051946;28;20068;-71
2021/03/05 10:58:50;;;;;;;19.42;8.63;;;;;;;5.09;48.31;102208.56;5029800;28;20514;-69
2021/03/05 11:01:17;;;;;;;16.23;8.02;;;;;;;5.35;48.19;102220.88;5031596;28;20045;-73
2021/03/05 11:03:44;;;;;;;21.63;9.05;;;;;;;5.17;48.03;102221.03;5058423;28;20119;-68
2021/03/05 11:06:12;;;;;;;16.70;9.00;;;;;;;5.08;48.51;102219.75;5056322;28;20045;-77
2021/03/05 11:08:43;;;;;;;16.30;8.00;;;;;;;5.01;48.36;102211.69;5054807;28;20056;-74
2021/03/05 11:11:11;;;;;;;16.05;7.53;;;;;;;5.21;47.07;102220.28;5056453;28;20063;-69
2021/03/05 11:13:51;;;;;;;17.50;8.20;;;;;;;5.17;47.47;102237.41;5064630;28;20075;-67
2021/03/05 11:16:18;;;;;;;21.15;7.97;;;;;;;5.15;47.12;102221.28;5058651;28;20507;-65
2021/03/05 11:18:45;;;;;;;16.42;8.18;;;;;;;5.36;46.70;102226.09;5052293;28;20049;-70
2021/03/05 11:21:12;;;;;;;14.45;8.23;;;;;;;5.53;46.07;102216.06;5063598;28;20053;-68
2021/03/05 11:23:39;;;;;;;15.75;7.50;;;;;;;5.73;46.60;102213.72;5055107;28;20369;-73
2021/03/05 11:26:07;;;;;;;15.77;8.32;;;;;;;6.04;45.42;102239.75;5054798;28;20055;-72
2021/03/05 11:28:34;;;;;;;16.48;7.82;;;;;;;5.75;45.20;102214.28;5044257;28;20068;-64
2021/03/05 11:31:02;;;;;;;16.63;7.43;;;;;;;5.83;45.55;102217.72;5048376;28;20491;-69
2021/03/05 11:33:29;;;;;;;14.77;6.30;;;;;;;5.65;45.16;102225.03;5062648;28;20051;-70
2021/03/05 11:35:57;;;;;;;16.77;7.22;;;;;;;5.48;45.78;102209.66;5066291;28;20052;-67
2021/03/05 11:38:24;;;;;;;15.25;7.45;;;;;;;5.59;45.45;102216.97;5066425;28;20089;-69
2021/03/05 11:40:51;;;;;;;14.25;7.30;;;;;;;5.60;45.35;102216.75;5061534;28;20057;-68
2021/03/05 11:43:18;;;;;;;14.13;6.88;;;;;;;5.73;45.18;102215.63;5045829;28;20048;-63
2021/03/05 11:45:45;;;;;;;14.93;6.78;;;;;;;5.62;45.34;102214.59;5050542;28;20132;-69